Time;durP1;ratioP1;P1;durP2;ratioP2;P2;SDS_P1;SDS_P2;PMS_P1;PMS_P2;Temp;Humidity;BMP_temperature;BMP_pressure;BME280_temperature;BME280_humidity;BME280_pressure;Samples;Min_cycle;Max_cycle;Signal;HPM_P1;HPM_P2
2022/05/16 00:01:06;;;;;;;20.20;5.90;;;;;;;13.69;54.06;99174.56;25052;1317;3026590;-62
2022/05/16 00:03:38;;;;;;;15.20;5.90;;;;;;;13.62;54.22;99171.23;25080;1314;3026795;-62
2022/05/16 00:06:09;;;;;;;17.00;6.00;;;;;;;13.56;53.86;99178.38;25120;1313;3026785;-64
2022/05/16 00:08:58;;;;;;;18.30;6.40;;;;;;;13.60;53.99;99171.07;25090;1315;3050030;-58
2022/05/16 00:11:29;;;;;;;13.10;5.00;;;;;;;13.54;53.84;99172.94;25142;1313;3026727;-60
2022/05/16 00:13:58;;;;;;;13.90;6.10;;;;;;;13.55;53.82;99170.06;25051;1314;3026705;-60
2022/05/16 00:16:27;;;;;;;17.20;6.00;;;;;;;13.50;53.94;99168.86;25086;1313;3052125;-65
2022/05/16 00:18:56;;;;;;;15.10;5.20;;;;;;;13.49;53.82;99170.17;25053;1313;3028929;-59
2022/05/16 00:21:25;;;;;;;19.80;5.00;;;;;;;13.42;54.29;99172.08;25096;1316;3057977;-66
2022/05/16 00:23:54;;;;;;;21.20;5.80;;;;;;;13.38;54.34;99170.81;25065;1316;3026804;-63
2022/05/16 00:26:24;;;;;;;14.20;4.70;;;;;;;13.36;54.74;99172.41;25079;1316;3055105;-59
2022/05/16 00:28:53;;;;;;;15.90;5.00;;;;;;;13.34;54.86;99173.40;25086;1313;3026697;-62
2022/05/16 00:31:22;;;;;;;22.70;5.30;;;;;;;13.35;55.27;99170.16;25065;1316;3051364;-63
2022/05/16 00:33:51;;;;;;;14.20;5.30;;;;;;;13.35;55.33;99170.89;25125;1313;3026469;-64
2022/05/16 00:36:20;;;;;;;18.90;6.90;;;;;;;13.33;55.45;99172.42;25044;1316;3046939;-63
2022/05/16 00:38:50;;;;;;;26.00;7.00;;;;;;;13.27;56.07;99173.02;25164;1315;3026354;-61
2022/05/16 00:41:19;;;;;;;19.10;7.60;;;;;;;13.27;56.12;99167.45;25125;1316;3068979;-63
2022/05/16 00:43:55;;;;;;;21.50;8.00;;;;;;;13.25;55.92;99167.52;25043;1313;3026187;-60
2022/05/16 00:46:29;;;;;;;26.00;8.40;;;;;;;13.25;55.31;99162.83;25051;1312;3050880;-60
2022/05/16 00:49:03;;;;;;;24.80;7.30;;;;;;;13.24;55.11;99168.17;25055;1316;3067027;-63
2022/05/16 00:51:34;;;;;;;27.10;8.50;;;;;;;13.20;54.71;99171.29;25082;1313;3048006;-64
2022/05/16 00:54:18;;;;;;;27.70;8.70;;;;;;;13.15;55.04;99171.66;25131;1313;3026318;-62
2022/05/16 00:56:50;;;;;;;22.10;8.80;;;;;;;13.16;54.69;99167.90;25099;1316;3053005;-60
2022/05/16 00:59:19;;;;;;;19.30;7.00;;;;;;;13.06;54.57;99171.13;25135;1315;3026399;-59
2022/05/16 01:04:48;;;;;;;21.80;7.30;;;;;;;13.03;55.02;99169.42;25089;1316;3054723;-63
2022/05/16 01:07:29;;;;;;;17.70;6.10;;;;;;;13.02;55.01;99163.12;25091;1313;3059334;-60
2022/05/16 01:09:58;;;;;;;18.30;6.10;;;;;;;12.99;55.45;99162.37;25084;1314;3049588;-60
2022/05/16 01:12:35;;;;;;;18.40;6.50;;;;;;;12.96;55.30;99156.72;25107;1313;3026008;-62
2022/05/16 01:15:09;;;;;;;20.10;5.90;;;;;;;12.96;55.21;99158.19;25054;1313;3056531;-63
2022/05/16 01:17:38;;;;;;;21.00;5.20;;;;;;;12.96;55.18;99162.57;25052;1316;3049489;-63
2022/05/16 01:20:09;;;;;;;14.60;5.30;;;;;;;12.93;55.03;99160.84;25061;1313;3026866;-61
2022/05/16 01:22:43;;;;;;;17.80;6.10;;;;;;;12.95;54.71;99159.27;25064;1313;3026518;-61
2022/05/16 01:25:34;;;;;;;14.80;4.80;;;;;;;12.92;54.92;99166.71;25074;1316;3070804;-62
2022/05/16 01:28:04;;;;;;;13.20;4.80;;;;;;;12.84;55.12;99176.27;25079;1315;3051680;-63
2022/05/16 01:30:46;;;;;;;13.00;4.40;;;;;;;12.88;55.17;99178.92;25160;1316;3026075;-61
2022/05/16 01:33:20;;;;;;;17.80;5.70;;;;;;;12.79;55.59;99186.66;25107;1316;3052330;-62
2022/05/16 01:35:49;;;;;;;12.00;5.20;;;;;;;12.78;55.92;99189.02;25082;1316;3057788;-61
2022/05/16 01:38:19;;;;;;;16.60;5.90;;;;;;;12.69;56.32;99189.30;25052;1316;3026355;-64
2022/05/16 01:40:50;;;;;;;15.20;5.40;;;;;;;12.71;56.29;99184.97;25072;1316;3027054;-61
2022/05/16 01:43:21;;;;;;;20.80;6.50;;;;;;;12.68;56.72;99186.38;25091;1316;3026567;-60
2022/05/16 01:45:50;;;;;;;18.30;5.90;;;;;;;12.65;57.27;99181.56;25048;1313;3026776;-63
2022/05/16 01:48:22;;;;;;;17.70;7.10;;;;;;;12.62;57.87;99186.35;25105;1314;3027412;-63
2022/05/16 01:50:56;;;;;;;15.90;5.80;;;;;;;12.63;57.98;99176.08;25108;1313;3026547;-60
2022/05/16 01:53:25;;;;;;;23.60;6.70;;;;;;;12.57;58.25;99184.57;25124;1316;3070900;-61
2022/05/16 01:55:54;;;;;;;18.60;6.80;;;;;;;12.54;58.44;99182.28;25050;1314;3026384;-62
2022/05/16 01:58:24;;;;;;;16.20;6.20;;;;;;;12.53;58.60;99185.26;24678;1316;3620716;-60
2022/05/16 02:00:53;;;;;;;20.30;7.40;;;;;;;12.45;59.08;99190.00;25106;1316;3026780;-63
2022/05/16 02:03:23;;;;;;;19.30;6.60;;;;;;;12.46;58.94;99191.85;25056;1316;3026862;-61
2022/05/16 02:05:52;;;;;;;30.90;8.60;;;;;;;12.45;58.97;99195.11;25089;1316;3026343;-63
2022/05/16 02:08:21;;;;;;;24.80;7.50;;;;;;;12.32;59.07;99206.38;25076;1316;3070506;-61
2022/05/16 02:10:51;;;;;;;18.10;5.40;;;;;;;12.26;58.85;99207.04;25061;1313;3026477;-60
2022/05/16 02:13:20;;;;;;;21.10;6.10;;;;;;;12.24;58.59;99210.17;25117;1316;3026304;-60
2022/05/16 02:15:49;;;;;;;20.70;7.30;;;;;;;12.14;58.88;99214.20;25416;1313;3028056;-58
2022/05/16 02:18:19;;;;;;;15.90;5.50;;;;;;;12.13;58.72;99215.46;25452;1315;3027939;-58
2022/05/16 02:24:38;;;;;;;15.90;5.30;;;;;;;12.07;58.64;99224.66;25451;1313;3049312;-62
2022/05/16 02:26:30;;;;;;;12.20;4.70;;;;;;;12.07;58.95;99226.41;25072;1316;3050293;-63
2022/05/16 02:28:59;;;;;;;14.10;4.90;;;;;;;12.12;58.70;99226.25;25069;1313;3026419;-59
2022/05/16 02:31:28;;;;;;;15.60;4.90;;;;;;;12.07;58.80;99219.08;25095;1313;3052273;-60
2022/05/16 02:33:57;;;;;;;13.30;4.00;;;;;;;11.96;59.31;99234.39;25111;1316;3028291;-60
2022/05/16 02:36:26;;;;;;;13.00;3.70;;;;;;;11.95;59.37;99237.30;25027;1313;3026915;-63
2022/05/16 02:38:57;;;;;;;14.10;4.10;;;;;;;11.96;59.40;99238.42;25119;1313;3055352;-62
2022/05/16 02:41:27;;;;;;;14.40;3.40;;;;;;;11.93;59.51;99237.92;25074;1316;3026310;-63
2022/05/16 02:43:56;;;;;;;6.90;3.00;;;;;;;11.91;59.42;99245.45;25090;1315;3048926;-61
2022/05/16 02:46:26;;;;;;;10.30;3.30;;;;;;;11.86;59.50;99247.30;25053;1316;3026602;-60
2022/05/16 02:48:55;;;;;;;16.40;4.10;;;;;;;11.84;59.79;99248.48;25119;1313;3026917;-60
2022/05/16 02:51:24;;;;;;;8.30;3.50;;;;;;;11.88;59.56;99254.20;25041;1312;3051483;-59
2022/05/16 02:53:54;;;;;;;9.00;3.10;;;;;;;11.90;59.49;99256.00;25085;1312;3026404;-61
2022/05/16 02:56:23;;;;;;;10.40;3.40;;;;;;;11.80;60.05;99264.77;25076;1312;3026484;-62
2022/05/16 02:58:52;;;;;;;13.20;3.90;;;;;;;11.84;59.89;99259.27;25067;1313;3052066;-64
2022/05/16 03:01:21;;;;;;;11.60;3.90;;;;;;;11.80;59.96;99267.08;25091;1312;3026067;-60
2022/05/16 03:03:50;;;;;;;6.10;3.60;;;;;;;11.79;60.02;99263.45;25081;1312;3058678;-63
2022/05/16 03:06:19;;;;;;;9.60;3.60;;;;;;;11.74;60.19;99271.50;25090;1313;3026907;-59
2022/05/16 03:08:48;;;;;;;16.30;5.00;;;;;;;11.79;59.83;99269.98;25080;1313;3026489;-60
2022/05/16 03:11:17;;;;;;;18.10;4.30;;;;;;;11.80;59.97;99274.66;25117;1313;3056810;-62
2022/05/16 03:13:49;;;;;;;10.30;3.50;;;;;;;11.82;59.42;99280.11;25140;1312;3027008;-63
2022/05/16 03:16:18;;;;;;;7.90;4.10;;;;;;;11.83;59.25;99284.77;25047;1312;3026291;-60
2022/05/16 03:18:47;;;;;;;11.70;3.90;;;;;;;11.85;58.93;99297.82;25114;1313;3026001;-62
2022/05/16 03:21:16;;;;;;;13.60;4.30;;;;;;;11.82;59.04;99290.30;25050;1313;3053415;-63
2022/05/16 03:23:45;;;;;;;13.70;4.90;;;;;;;11.86;59.07;99292.45;25109;1312;3026599;-59
2022/05/16 03:26:14;;;;;;;16.10;5.90;;;;;;;11.86;59.00;99303.67;25056;1312;3058132;-62
2022/05/16 03:28:43;;;;;;;14.00;7.10;;;;;;;11.76;59.02;99308.20;25117;1313;3026430;-63
2022/05/16 03:31:13;;;;;;;12.40;5.60;;;;;;;11.75;59.21;99305.14;25062;1313;3054783;-59
2022/05/16 03:33:42;;;;;;;18.00;5.60;;;;;;;11.77;59.06;99306.01;25086;1312;3026758;-62
2022/05/16 03:36:12;;;;;;;20.60;7.20;;;;;;;11.76;58.85;99306.96;25123;1312;3054631;-62
2022/05/16 03:41:28;;;;;;;15.00;7.20;;;;;;;11.83;58.97;99307.55;25046;1313;3051902;-60
2022/05/16 03:43:57;;;;;;;20.50;8.90;;;;;;;11.88;58.80;99313.20;25116;1313;3026116;-61
2022/05/16 03:46:26;;;;;;;20.40;8.20;;;;;;;11.85;59.00;99315.67;25053;1316;3070740;-63
2022/05/16 03:48:56;;;;;;;16.20;8.00;;;;;;;11.81;59.09;99311.61;25102;1313;3026822;-64
2022/05/16 03:51:25;;;;;;;22.60;9.40;;;;;;;11.82;59.20;99313.63;25071;1312;3052931;-62
2022/05/16 03:53:54;;;;;;;17.70;7.10;;;;;;;11.83;59.35;99321.43;25053;1316;3026588;-60
2022/05/16 03:56:26;;;;;;;14.50;7.00;;;;;;;11.79;59.44;99314.86;25108;1313;3026540;-61
2022/05/16 03:58:55;;;;;;;12.60;4.90;;;;;;;11.77;59.68;99319.91;25133;1316;3030353;-61
2022/05/16 04:01:25;;;;;;;15.60;4.90;;;;;;;11.84;59.53;99314.71;25088;1316;3026614;-58
2022/05/16 04:03:54;;;;;;;11.30;4.00;;;;;;;11.87;59.27;99322.37;25083;1316;3052100;-60
2022/05/16 04:06:23;;;;;;;7.50;2.90;;;;;;;12.00;58.92;99318.02;25150;1315;3026305;-60
2022/05/16 04:08:54;;;;;;;5.40;2.10;;;;;;;11.98;58.67;99320.98;25071;1315;3026659;-62
2022/05/16 04:11:24;;;;;;;5.40;2.00;;;;;;;12.04;58.29;99323.18;25137;1315;3048538;-59
2022/05/16 04:13:52;;;;;;;3.80;1.70;;;;;;;12.05;57.63;99327.16;25072;1315;3026579;-62
2022/05/16 04:16:21;;;;;;;5.80;1.90;;;;;;;12.11;57.47;99325.18;25126;1316;3070256;-62
2022/05/16 04:18:50;;;;;;;6.20;1.70;;;;;;;12.11;57.06;99328.52;25068;1316;3027779;-61
2022/05/16 04:21:20;;;;;;;4.10;1.80;;;;;;;12.22;56.83;99329.48;25106;1316;3053060;-59
2022/05/16 04:23:49;;;;;;;10.10;2.10;;;;;;;12.32;56.92;99324.43;25125;1316;3026788;-59
2022/05/16 04:26:20;;;;;;;3.50;1.60;;;;;;;12.36;56.61;99327.33;25122;1316;3053036;-63
2022/05/16 04:28:50;;;;;;;7.50;1.70;;;;;;;12.33;56.06;99325.77;25133;1315;3027001;-63
2022/05/16 04:31:18;;;;;;;6.10;1.50;;;;;;;12.36;56.34;99331.02;25053;1316;3030297;-63
2022/05/16 04:33:48;;;;;;;3.70;1.70;;;;;;;12.42;55.81;99324.80;25069;1316;3055688;-60
2022/05/16 04:36:17;;;;;;;4.40;1.70;;;;;;;12.44;55.93;99333.06;25108;1316;3027854;-61
2022/05/16 04:38:46;;;;;;;3.90;1.30;;;;;;;12.49;56.02;99333.26;25059;1316;3051411;-62
2022/05/16 04:44:04;;;;;;;6.00;1.70;;;;;;;12.69;55.44;99334.13;25108;1314;3058911;-61
2022/05/16 04:46:34;;;;;;;6.00;1.70;;;;;;;12.64;55.31;99340.30;25125;1316;3028784;-63
2022/05/16 04:49:02;;;;;;;5.50;1.70;;;;;;;12.56;54.96;99339.98;25082;1313;3026273;-61
2022/05/16 04:51:32;;;;;;;5.30;1.80;;;;;;;12.49;54.79;99337.10;25090;1316;3058072;-64
2022/05/16 04:54:02;;;;;;;4.90;1.70;;;;;;;12.55;54.93;99340.89;25121;1313;3027125;-62
2022/05/16 04:56:31;;;;;;;5.00;1.50;;;;;;;12.67;54.36;99345.52;25098;1315;3026339;-60
2022/05/16 04:59:01;;;;;;;2.10;1.00;;;;;;;12.71;53.59;99350.51;25075;1316;3026333;-61
2022/05/16 05:01:30;;;;;;;8.80;1.30;;;;;;;12.68;53.48;99354.44;25124;1313;3026293;-61
2022/05/16 05:03:59;;;;;;;5.40;1.50;;;;;;;12.71;54.03;99349.45;25098;1316;3055201;-63
2022/05/16 05:06:28;;;;;;;3.50;1.50;;;;;;;12.81;54.36;99359.27;25071;1313;3026881;-61
2022/05/16 05:08:58;;;;;;;4.00;1.90;;;;;;;12.79;54.12;99360.96;25044;1316;3026541;-64
2022/05/16 05:14:34;;;;;;;2.60;1.30;;;;;;;12.80;53.61;99359.16;25147;1315;3054917;-60
2022/05/16 05:17:05;;;;;;;3.40;1.10;;;;;;;12.81;53.10;99364.68;25155;1312;3053473;-62
2022/05/16 05:19:35;;;;;;;7.20;1.70;;;;;;;12.86;53.28;99362.27;25104;1312;3026048;-62
2022/05/16 05:22:04;;;;;;;4.80;1.10;;;;;;;12.91;53.31;99366.23;25092;1312;3026388;-63
2022/05/16 05:24:34;;;;;;;8.40;1.90;;;;;;;13.01;52.64;99369.11;25137;1312;3026912;-64
2022/05/16 05:27:04;;;;;;;6.70;1.60;;;;;;;13.06;52.75;99369.05;25118;1312;3054697;-62
2022/05/16 05:29:34;;;;;;;4.70;1.30;;;;;;;13.23;53.13;99374.86;25151;1312;3028574;-64
2022/05/16 05:32:06;;;;;;;6.80;1.40;;;;;;;13.40;53.24;99370.16;25139;1312;3026862;-61
2022/05/16 05:34:39;;;;;;;3.70;1.50;;;;;;;13.41;52.20;99371.88;25169;1312;3028511;-58
2022/05/16 05:37:08;;;;;;;9.10;1.60;;;;;;;13.33;52.65;99370.14;25107;1312;3026988;-62
2022/05/16 05:39:39;;;;;;;3.50;1.30;;;;;;;13.35;51.61;99374.19;25161;1312;3026684;-62
2022/05/16 05:42:09;;;;;;;9.40;1.50;;;;;;;13.33;52.25;99375.05;25092;1312;3028136;-61
2022/05/16 05:44:40;;;;;;;8.60;2.00;;;;;;;13.34;52.76;99377.60;25134;1312;3027939;-61
2022/05/16 05:47:09;;;;;;;1.70;0.90;;;;;;;13.50;52.51;99373.66;25118;1312;3026501;-61
2022/05/16 05:49:38;;;;;;;3.60;1.20;;;;;;;13.57;50.67;99379.61;25111;1312;3054791;-62
2022/05/16 05:52:07;;;;;;;4.40;1.30;;;;;;;13.54;49.96;99373.53;25165;1312;3026330;-62
2022/05/16 05:54:36;;;;;;;3.50;1.00;;;;;;;13.59;49.47;99381.95;25145;1312;3051379;-60
2022/05/16 05:57:06;;;;;;;2.30;1.20;;;;;;;13.67;49.06;99383.13;25130;1312;3026592;-59
2022/05/16 05:59:35;;;;;;;3.40;1.00;;;;;;;13.76;48.65;99376.10;25143;1312;3069973;-65
2022/05/16 06:02:08;;;;;;;3.40;0.80;;;;;;;13.83;47.99;99378.77;25142;1312;3026421;-62
2022/05/16 06:04:38;;;;;;;3.70;1.10;;;;;;;13.83;48.27;99380.73;25136;1312;3030141;-62
2022/05/16 06:07:07;;;;;;;4.70;1.20;;;;;;;14.03;48.12;99377.77;25173;1312;3027128;-62
2022/05/16 06:09:36;;;;;;;4.00;1.40;;;;;;;14.10;46.82;99388.34;25076;1312;3026641;-63
2022/05/16 06:12:06;;;;;;;5.50;0.90;;;;;;;14.14;46.53;99390.70;25121;1312;3028008;-64
2022/05/16 06:14:35;;;;;;;4.30;1.10;;;;;;;14.18;46.51;99384.40;25153;1312;3052031;-61
2022/05/16 06:17:04;;;;;;;6.60;0.90;;;;;;;14.32;46.30;99390.56;25081;1313;3029210;-61
2022/05/16 06:19:35;;;;;;;2.40;1.00;;;;;;;14.26;45.72;99388.51;25148;1312;3054747;-62
2022/05/16 06:22:05;;;;;;;3.40;1.00;;;;;;;14.20;45.27;99384.91;25134;1312;3027519;-62
2022/05/16 06:27:22;;;;;;;2.60;0.80;;;;;;;14.58;45.39;99397.70;25092;1312;3049153;-61
2022/05/16 06:29:56;;;;;;;4.00;0.80;;;;;;;14.55;44.83;99405.30;25128;1312;3026096;-60
2022/05/16 06:32:25;;;;;;;3.00;0.90;;;;;;;14.46;44.30;99404.27;25130;1312;3028310;-60
2022/05/16 06:34:56;;;;;;;4.10;0.90;;;;;;;14.46;44.24;99398.42;25114;1312;3028514;-60
2022/05/16 06:37:25;;;;;;;2.20;0.70;;;;;;;14.43;44.23;99401.14;25155;1312;3026883;-61
2022/05/16 06:39:55;;;;;;;5.00;0.80;;;;;;;14.50;44.39;99396.88;25121;1312;3026272;-62
2022/05/16 06:42:24;;;;;;;2.20;0.80;;;;;;;14.59;43.23;99394.27;25141;1313;3026487;-63
2022/05/16 06:44:53;;;;;;;3.60;1.00;;;;;;;14.70;43.56;99389.40;25145;1312;3048154;-60
2022/05/16 06:47:23;;;;;;;4.40;1.20;;;;;;;14.75;44.21;99398.99;25120;1312;3027487;-63
2022/05/16 06:49:52;;;;;;;3.60;1.30;;;;;;;14.73;44.47;99395.46;25095;1312;3026106;-62
2022/05/16 06:52:24;;;;;;;2.90;0.90;;;;;;;14.75;43.52;99396.04;25111;1312;3026096;-61
2022/05/16 06:54:53;;;;;;;10.60;1.50;;;;;;;14.77;43.06;99398.52;25141;1313;3026747;-64
2022/05/16 06:57:23;;;;;;;6.10;1.30;;;;;;;14.89;43.35;99395.65;25151;1313;3028088;-60
2022/05/16 06:59:52;;;;;;;4.10;0.80;;;;;;;15.13;43.26;99394.80;25120;1312;3026532;-64
2022/05/16 07:02:21;;;;;;;3.10;1.10;;;;;;;15.26;43.45;99397.47;25131;1312;3028689;-61
2022/05/16 07:04:51;;;;;;;2.60;1.30;;;;;;;15.16;42.71;99405.80;25132;1312;3055260;-64
2022/05/16 07:07:20;;;;;;;7.00;1.70;;;;;;;15.02;41.30;99408.23;25135;1312;3026421;-62
2022/05/16 07:09:49;;;;;;;13.40;1.50;;;;;;;14.99;41.20;99408.92;25401;1313;3026391;-58
2022/05/16 07:12:18;;;;;;;2.90;1.40;;;;;;;15.16;41.45;99412.69;25508;1312;3027097;-57
2022/05/16 07:14:48;;;;;;;5.20;1.70;;;;;;;15.12;41.75;99414.13;25536;1312;3054345;-59
2022/05/16 07:17:17;;;;;;;2.00;1.10;;;;;;;15.26;41.79;99408.77;25362;1312;3026328;-62
2022/05/16 07:19:47;;;;;;;2.40;1.40;;;;;;;15.46;41.52;99404.67;25133;1312;3055302;-61
2022/05/16 07:22:19;;;;;;;7.50;1.50;;;;;;;15.55;41.37;99407.59;25139;1312;3026610;-64
2022/05/16 07:24:48;;;;;;;4.00;1.00;;;;;;;15.43;39.99;99413.36;25137;1312;3026748;-62
2022/05/16 07:30:07;;;;;;;2.80;1.00;;;;;;;15.31;39.75;99414.70;25123;1312;3055156;-63
2022/05/16 07:32:41;;;;;;;4.20;1.10;;;;;;;15.47;39.87;99413.02;25116;1313;3026462;-63
2022/05/16 07:35:15;;;;;;;3.60;1.50;;;;;;;15.65;39.34;99406.44;25088;1312;3058258;-63
2022/05/16 07:37:47;;;;;;;5.00;0.80;;;;;;;15.79;39.08;99408.68;25114;1312;3049122;-62
2022/05/16 07:40:17;;;;;;;3.70;1.20;;;;;;;15.85;39.00;99412.43;25181;1312;3026590;-61
2022/05/16 07:42:46;;;;;;;5.70;1.20;;;;;;;16.11;39.36;99405.49;25101;1312;3026500;-63
2022/05/16 07:45:16;;;;;;;2.10;1.00;;;;;;;16.34;39.15;99413.12;25135;1312;3026912;-63
2022/05/16 07:47:45;;;;;;;3.80;0.90;;;;;;;16.46;39.04;99410.28;25159;1312;3055085;-65
2022/05/16 07:50:14;;;;;;;4.00;0.80;;;;;;;16.42;38.90;99412.21;25130;1312;3028992;-60
2022/05/16 07:52:47;;;;;;;1.30;0.80;;;;;;;16.08;38.80;99416.15;25100;1312;3049885;-61
2022/05/16 07:55:19;;;;;;;5.60;0.70;;;;;;;16.24;38.68;99415.72;25109;1312;3026827;-62
2022/05/16 07:57:48;;;;;;;6.40;1.30;;;;;;;16.26;38.68;99422.38;25111;1312;3026950;-59
2022/05/16 08:00:19;;;;;;;3.80;1.20;;;;;;;16.30;38.82;99418.89;25141;1312;3026394;-63
2022/05/16 08:02:48;;;;;;;3.20;0.90;;;;;;;16.41;38.30;99417.76;25150;1312;3052750;-64
2022/05/16 08:05:17;;;;;;;4.70;1.00;;;;;;;16.40;37.62;99426.91;25128;1312;3026511;-59
2022/05/16 08:10:35;;;;;;;2.10;0.70;;;;;;;16.44;37.18;99423.36;25099;1312;3052816;-64
2022/05/16 08:13:07;;;;;;;2.70;0.80;;;;;;;16.33;37.08;99420.10;25190;1312;3026360;-60
2022/05/16 08:15:39;;;;;;;3.30;1.20;;;;;;;16.57;36.66;99407.75;25071;1312;3069354;-61
2022/05/16 08:18:10;;;;;;;2.90;1.10;;;;;;;16.75;36.72;99417.55;25065;1312;3027371;-65
2022/05/16 08:20:43;;;;;;;2.00;0.70;;;;;;;16.75;36.52;99419.28;25142;1312;3026983;-64
2022/05/16 08:23:14;;;;;;;2.70;0.80;;;;;;;16.92;36.10;99410.03;25071;1312;3054556;-61
2022/05/16 08:25:44;;;;;;;3.90;0.80;;;;;;;16.91;35.66;99413.83;25131;1312;3027137;-63
2022/05/16 08:28:13;;;;;;;3.10;1.20;;;;;;;16.83;35.00;99412.41;25149;1312;3028672;-64
2022/05/16 08:30:43;;;;;;;2.30;0.70;;;;;;;16.86;35.05;99406.85;25086;1312;3026951;-63
2022/05/16 08:33:12;;;;;;;2.60;0.90;;;;;;;16.91;34.65;99407.67;25121;1312;3026079;-63
2022/05/16 08:35:41;;;;;;;4.00;0.50;;;;;;;17.19;34.27;99410.82;25179;1312;3026520;-61
2022/05/16 08:41:02;;;;;;;1.30;0.70;;;;;;;17.28;34.30;99412.18;25099;1312;3054495;-61
2022/05/16 08:43:30;;;;;;;4.50;1.00;;;;;;;17.09;34.47;99408.71;25105;1312;3027149;-62
2022/05/16 08:46:04;;;;;;;2.20;0.80;;;;;;;16.98;34.68;99408.85;25098;1312;3026579;-63
2022/05/16 08:48:37;;;;;;;1.80;0.70;;;;;;;17.29;34.72;99401.62;25160;1312;3052536;-60
2022/05/16 08:51:29;;;;;;;2.30;0.70;;;;;;;17.38;34.40;99408.44;25111;1312;3070270;-63
2022/05/16 08:54:17;;;;;;;1.00;0.50;;;;;;;17.28;33.93;99412.85;25090;1312;3050147;-62
2022/05/16 08:56:46;;;;;;;1.80;0.80;;;;;;;17.22;33.25;99414.69;25084;1312;3054857;-63
2022/05/16 08:59:18;;;;;;;4.40;0.90;;;;;;;17.27;33.32;99415.27;25096;1312;3026392;-60
2022/05/16 09:02:02;;;;;;;4.90;1.10;;;;;;;17.36;33.00;99404.92;25136;1312;3052199;-62
2022/05/16 09:04:39;;;;;;;2.50;0.80;;;;;;;17.62;32.53;99401.87;25155;1312;3052495;-65
2022/05/16 09:07:32;;;;;;;3.50;1.30;;;;;;;17.63;32.91;99398.56;25110;1312;3052777;-63
2022/05/16 09:10:15;;;;;;;7.20;1.30;;;;;;;17.67;34.12;99406.71;25123;1313;3059199;-64
2022/05/16 09:12:56;;;;;;;3.00;1.10;;;;;;;17.41;35.68;99415.30;25081;1312;3049648;-62
2022/05/16 09:15:46;;;;;;;5.00;1.10;;;;;;;17.36;36.29;99406.17;25131;1312;3054184;-61
2022/05/16 09:18:35;;;;;;;4.80;1.20;;;;;;;17.60;34.83;99403.64;25151;1312;3052107;-59
2022/05/16 09:21:14;;;;;;;4.50;1.00;;;;;;;17.90;33.64;99398.78;25057;1312;3068217;-60
2022/05/16 09:23:52;;;;;;;1.50;0.80;;;;;;;17.89;34.16;99405.27;25151;1312;3049496;-66
2022/05/16 09:26:33;;;;;;;7.10;1.20;;;;;;;17.72;34.81;99399.71;25128;1312;3053493;-59
2022/05/16 09:29:24;;;;;;;3.30;0.90;;;;;;;17.83;34.52;99408.84;25092;1312;3053836;-62
2022/05/16 09:31:55;;;;;;;4.50;1.10;;;;;;;17.96;34.46;99395.26;25081;1312;3059209;-62
2022/05/16 09:34:24;;;;;;;2.50;0.70;;;;;;;18.12;34.62;99401.92;25083;1312;3026215;-59
2022/05/16 09:36:53;;;;;;;4.50;1.40;;;;;;;18.14;32.86;99402.83;25150;1312;3026403;-60
2022/05/16 09:39:31;;;;;;;1.00;0.60;;;;;;;18.12;32.70;99402.59;25086;1312;3057021;-60
2022/05/16 09:42:26;;;;;;;5.70;1.40;;;;;;;17.85;32.59;99400.35;25050;1312;3050272;-62
2022/05/16 09:45:03;;;;;;;2.40;0.90;;;;;;;17.51;33.25;99406.04;25119;1313;3055787;-64
2022/05/16 09:47:34;;;;;;;8.60;0.90;;;;;;;17.56;33.62;99405.77;25106;1313;3054171;-62
2022/05/16 09:50:20;;;;;;;1.50;0.70;;;;;;;17.73;34.05;99396.13;25129;1313;3026422;-61
2022/05/16 09:53:10;;;;;;;2.40;0.60;;;;;;;18.11;33.25;99394.25;25146;1312;3049680;-65
2022/05/16 09:55:51;;;;;;;6.90;0.70;;;;;;;18.22;33.68;99399.90;25112;1313;3051967;-62
2022/05/16 09:58:22;;;;;;;2.10;0.80;;;;;;;18.15;33.37;99395.06;25125;1312;3055302;-60
2022/05/16 10:01:05;;;;;;;5.40;0.90;;;;;;;18.05;32.62;99388.08;25115;1312;3028595;-64
2022/05/16 10:03:41;;;;;;;;;;;;;;;18.01;32.60;99395.70;25110;1312;3052509;-63
2022/05/16 10:06:37;;;;;;;2.00;0.70;;;;;;;17.70;32.83;99392.47;25079;1312;3052829;-63
2022/05/16 10:09:11;;;;;;;4.30;0.90;;;;;;;17.77;33.35;99390.98;25143;1312;3027108;-62
2022/05/16 10:11:41;;;;;;;1.80;0.80;;;;;;;17.53;34.02;99395.37;25117;1312;3068288;-64
2022/05/16 10:14:11;;;;;;;2.00;0.90;;;;;;;17.51;35.01;99389.08;25112;1312;3026875;-62
2022/05/16 10:16:43;;;;;;;2.40;0.80;;;;;;;17.44;35.53;99392.52;25115;1313;3026985;-65
2022/05/16 10:19:15;;;;;;;4.60;1.10;;;;;;;17.59;35.52;99385.48;25150;1313;3026556;-62
2022/05/16 10:21:56;;;;;;;6.80;0.90;;;;;;;17.68;34.98;99384.02;25138;1312;3026826;-62
2022/05/16 10:24:27;;;;;;;1.90;0.80;;;;;;;17.62;34.90;99388.64;25123;1312;3049554;-63
2022/05/16 10:26:56;;;;;;;4.90;1.20;;;;;;;17.46;35.65;99385.61;25096;1313;3027657;-62
2022/05/16 10:29:30;;;;;;;5.90;1.40;;;;;;;17.37;35.93;99387.84;25074;1313;3026782;-63
2022/05/16 10:34:55;;;;;;;2.20;1.10;;;;;;;17.61;35.43;99375.41;25089;1312;3055767;-62
2022/05/16 10:37:24;;;;;;;3.80;1.80;;;;;;;18.10;34.81;99364.20;25083;1312;3028194;-62
2022/05/16 10:40:01;;;;;;;3.30;0.90;;;;;;;18.46;34.14;99370.58;25147;1312;3026927;-62
2022/05/16 10:42:38;;;;;;;2.60;1.00;;;;;;;18.36;33.85;99370.27;25104;1313;3051426;-61
2022/05/16 10:45:18;;;;;;;1.50;0.80;;;;;;;18.20;33.69;99363.11;25104;1312;3055326;-61
2022/05/16 10:47:56;;;;;;;4.90;1.10;;;;;;;18.21;33.90;99363.47;25121;1312;3053966;-62
2022/05/16 10:50:28;;;;;;;6.60;1.10;;;;;;;18.03;33.81;99367.91;25144;1313;3058701;-63
2022/05/16 10:53:01;;;;;;;3.50;0.90;;;;;;;18.02;34.21;99368.11;25150;1313;3026405;-61
2022/05/16 10:55:54;;;;;;;4.10;1.20;;;;;;;18.09;34.20;99375.42;25106;1312;3026727;-63
2022/05/16 10:58:35;;;;;;;6.40;0.90;;;;;;;17.96;34.39;99373.58;25083;1312;3053998;-64
2022/05/16 11:01:12;;;;;;;10.40;1.00;;;;;;;17.98;34.61;99373.33;25102;1312;3071791;-64
2022/05/16 11:03:53;;;;;;;4.80;1.30;;;;;;;18.14;34.61;99369.51;25127;1312;3047741;-63
2022/05/16 11:06:40;;;;;;;3.30;1.40;;;;;;;18.36;33.51;99371.00;25096;1312;3053093;-64
2022/05/16 11:09:30;;;;;;;5.40;1.80;;;;;;;18.51;33.01;99367.45;25127;1312;3052739;-60
2022/05/16 11:12:25;;;;;;;7.50;0.80;;;;;;;18.72;32.19;99372.49;25130;1312;3059293;-63
2022/05/16 11:15:05;;;;;;;2.30;0.90;;;;;;;18.85;30.14;99366.91;25100;1313;3053046;-62
2022/05/16 11:18:03;;;;;;;2.10;0.60;;;;;;;19.19;28.85;99357.50;25145;1313;3053334;-58
2022/05/16 11:20:38;;;;;;;5.80;0.70;;;;;;;19.35;27.03;99367.10;25112;1313;3053011;-63
2022/05/16 11:23:33;;;;;;;3.00;0.60;;;;;;;19.38;26.56;99365.73;25150;1313;3067911;-63
2022/05/16 11:26:07;;;;;;;2.50;0.70;;;;;;;19.36;25.31;99378.80;25034;1313;3049159;-63
2022/05/16 11:29:16;;;;;;;1.00;0.70;;;;;;;19.33;24.59;99367.19;25089;1312;3054620;-62
2022/05/16 11:31:31;;;;;;;2.20;0.70;;;;;;;19.38;24.62;99360.12;25105;1312;3054730;-62
2022/05/16 11:34:00;;;;;;;2.00;0.80;;;;;;;19.25;24.87;99362.98;25105;1312;3026767;-62
2022/05/16 11:36:37;;;;;;;1.30;0.80;;;;;;;19.54;25.36;99349.59;25098;1312;3026378;-61
2022/05/16 11:39:27;;;;;;;3.50;0.90;;;;;;;20.04;25.32;99346.35;25100;1312;3056943;-61
2022/05/16 11:42:14;;;;;;;3.00;0.60;;;;;;;19.98;25.63;99354.52;25078;1312;3058826;-64
2022/05/16 11:44:48;;;;;;;2.60;1.10;;;;;;;19.91;25.01;99354.44;25152;1312;3049688;-64
2022/05/16 11:47:20;;;;;;;;;;;;;;;19.98;25.54;99350.05;25189;1312;3053399;-63
2022/05/16 11:49:59;;;;;;;3.70;1.30;;;;;;;19.89;25.69;99357.92;25208;1312;3026568;-63
2022/05/16 11:53:03;;;;;;;6.30;1.10;;;;;;;19.94;26.14;99359.05;25246;1312;3071474;-66
2022/05/16 12:01:27;;;;;;;5.90;0.70;;;;;;;20.22;25.28;99342.98;25549;1313;3055618;-63
2022/05/16 12:04:19;;;;;;;3.40;1.30;;;;;;;19.98;24.56;99354.31;25397;1312;3056731;-65
2022/05/16 12:06:58;;;;;;;8.80;1.80;;;;;;;20.02;25.67;99345.44;25052;1313;3052281;-62
2022/05/16 12:09:32;;;;;;;6.60;1.80;;;;;;;20.30;25.59;99335.76;25117;1313;3055644;-63
2022/05/16 12:12:11;;;;;;;6.60;1.90;;;;;;;20.72;25.15;99330.81;25113;1312;3026526;-65
2022/05/16 12:14:43;;;;;;;6.10;1.80;;;;;;;20.67;25.10;99335.20;25114;1312;3070981;-63